Time,TemperatureF,DewpointF,PressureIn,WindDirection,WindDirectionDegrees,WindSpeedMPH,WindSpeedGustMPH,Humidity,HourlyPrecipIn,Conditions,Clouds,dailyrainin,SoftwareType,DateUTC
2013-11-29 00:14:00,32.1,31.0,30.49,SE,144,0.0,0.0,95,0.00,,,0.00,weatherlink.com 1.10,2013-11-29 05:14:00,
2013-11-29 00:29:00,32.0,31.0,30.49,SE,144,0.0,0.0,95,0.00,,,0.00,weatherlink.com 1.10,2013-11-29 05:29:00,
2013-11-29 00:44:00,31.6,30.0,30.49,SE,144,0.0,0.0,95,0.00,,,0.00,weatherlink.com 1.10,2013-11-29 05:44:00,
2013-11-29 00:59:00,31.4,30.0,30.48,SE,143,0.0,0.0,95,0.00,,,0.00,weatherlink.com 1.10,2013-11-29 05:59:00,
2013-11-29 01:15:00,31.4,30.0,30.48,SE,143,0.0,0.0,95,0.00,,,0.00,weatherlink.com 1.10,2013-11-29 06:15:00,
2013-11-29 01:29:00,31.2,30.0,30.48,SE,143,0.0,0.0,95,0.00,,,0.00,weatherlink.com 1.10,2013-11-29 06:29:00,
2013-11-29 01:44:00,31.0,30.0,30.49,SE,143,0.0,0.0,94,0.00,,,0.00,weatherlink.com 1.10,2013-11-29 06:44:00,
2013-11-29 01:59:00,30.9,30.0,30.49,SE,143,0.0,0.0,95,0.00,,,0.00,weatherlink.com 1.10,2013-11-29 06:59:00,
2013-11-29 02:14:00,31.3,30.0,30.49,SE,143,0.0,1.0,95,0.00,,,0.00,weatherlink.com 1.10,2013-11-29 07:14:00,
2013-11-29 02:29:00,31.1,30.0,30.49,SE,143,0.0,0.0,95,0.00,,,0.00,weatherlink.com 1.10,2013-11-29 07:29:00,
2013-11-29 02:44:00,31.0,30.0,30.49,SE,143,0.0,0.0,95,0.00,,,0.00,weatherlink.com 1.10,2013-11-29 07:44:00,
2013-11-29 02:59:00,30.9,30.0,30.49,SE,144,0.0,0.0,95,0.00,,,0.00,weatherlink.com 1.10,2013-11-29 07:59:00,
2013-11-29 03:14:00,30.8,30.0,30.49,SE,143,0.0,0.0,95,0.00,,,0.00,weatherlink.com 1.10,2013-11-29 08:14:00,
2013-11-29 03:29:00,30.6,29.0,30.49,SE,143,0.0,0.0,95,0.00,,,0.00,weatherlink.com 1.10,2013-11-29 08:29:00,
2013-11-29 03:44:00,30.0,29.0,30.49,SE,144,0.0,0.0,95,0.00,,,0.00,weatherlink.com 1.10,2013-11-29 08:44:00,
2013-11-29 03:59:00,29.7,29.0,30.48,SE,144,0.0,0.0,95,0.00,,,0.00,weatherlink.com 1.10,2013-11-29 08:59:00,
2013-11-29 04:14:00,30.0,29.0,30.48,SE,143,0.0,0.0,95,0.00,,,0.00,weatherlink.com 1.10,2013-11-29 09:14:00,
2013-11-29 04:29:00,30.0,29.0,30.48,SE,144,0.0,0.0,95,0.00,,,0.00,weatherlink.com 1.10,2013-11-29 09:29:00,
2013-11-29 04:44:00,29.6,28.0,30.48,SE,143,0.0,0.0,95,0.00,,,0.00,weatherlink.com 1.10,2013-11-29 09:44:00,
2013-11-29 04:59:00,29.8,29.0,30.48,SE,144,0.0,0.0,95,0.00,,,0.00,weatherlink.com 1.10,2013-11-29 09:59:00,
2013-11-29 05:14:00,30.0,29.0,30.49,SE,144,0.0,0.0,96,0.00,,,0.00,weatherlink.com 1.10,2013-11-29 10:14:00,
2013-11-29 05:29:00,29.3,28.0,30.50,SE,144,0.0,0.0,95,0.00,,,0.00,weatherlink.com 1.10,2013-11-29 10:29:00,
2013-11-29 05:44:00,29.9,29.0,30.50,SE,144,0.0,0.0,96,0.00,,,0.00,weatherlink.com 1.10,2013-11-29 10:44:00,
2013-11-29 05:59:00,29.6,28.0,30.50,SE,143,0.0,0.0,95,0.00,,,0.00,weatherlink.com 1.10,2013-11-29 10:59:00,
2013-11-29 06:14:00,29.8,29.0,30.50,SE,144,0.0,0.0,96,0.00,,,0.00,weatherlink.com 1.10,2013-11-29 11:14:00,
2013-11-29 06:29:00,29.7,29.0,30.51,SE,143,0.0,0.0,96,0.00,,,0.00,weatherlink.com 1.10,2013-11-29 11:29:00,
2013-11-29 06:44:00,30.1,29.0,30.51,North,9,0.0,1.0,96,0.00,,,0.00,weatherlink.com 1.10,2013-11-29 11:44:00,
2013-11-29 06:59:00,30.5,30.0,30.52,ENE,60,0.0,1.0,96,0.00,,,0.00,weatherlink.com 1.10,2013-11-29 11:59:00,
2013-11-29 07:14:00,30.9,30.0,30.52,NNE,26,1.0,3.0,95,0.00,,,0.00,weatherlink.com 1.10,2013-11-29 12:14:00,
2013-11-29 07:29:00,32.1,30.0,30.53,NE,52,0.0,3.0,92,0.00,,,0.00,weatherlink.com 1.10,2013-11-29 12:29:00,
2013-11-29 07:44:00,33.1,30.0,30.53,North,355,0.0,3.0,89,0.00,,,0.00,weatherlink.com 1.10,2013-11-29 12:44:00,
2013-11-29 07:59:00,33.7,31.0,30.53,NNE,16,0.0,2.0,88,0.00,,,0.00,weatherlink.com 1.10,2013-11-29 12:59:00,
2013-11-29 08:15:00,35.6,31.0,30.54,North,7,3.0,6.0,84,0.00,,,0.00,weatherlink.com 1.10,2013-11-29 13:15:00,
2013-11-29 08:30:00,37.9,32.0,30.54,East,89,2.0,5.0,80,0.00,,,0.00,weatherlink.com 1.10,2013-11-29 13:30:00,
2013-11-29 08:45:00,39.3,33.0,30.54,East,88,2.0,5.0,77,0.00,,,0.00,weatherlink.com 1.10,2013-11-29 13:45:00,
2013-11-29 09:00:00,40.1,32.0,30.55,ENE,75,2.0,6.0,72,0.00,,,0.00,weatherlink.com 1.10,2013-11-29 14:00:00,
2013-11-29 09:15:00,41.6,32.0,30.55,NE,39,3.0,7.0,70,0.00,,,0.00,weatherlink.com 1.10,2013-11-29 14:15:00,
2013-11-29 09:30:00,42.0,32.0,30.55,NE,47,2.0,5.0,68,0.00,,,0.00,weatherlink.com 1.10,2013-11-29 14:30:00,
2013-11-29 09:45:00,42.8,32.0,30.55,ENE,69,0.0,6.0,65,0.00,,,0.00,weatherlink.com 1.10,2013-11-29 14:45:00,
2013-11-29 10:00:00,43.5,32.0,30.55,ENE,59,2.0,5.0,64,0.00,,,0.00,weatherlink.com 1.10,2013-11-29 15:00:00,
2013-11-29 10:15:00,44.8,33.0,30.55,East,85,4.0,8.0,63,0.00,,,0.00,weatherlink.com 1.10,2013-11-29 15:15:00,
2013-11-29 10:30:00,46.7,33.0,30.56,North,4,6.0,7.0,59,0.00,,,0.00,weatherlink.com 1.10,2013-11-29 15:30:00,
2013-11-29 10:45:00,48.1,31.0,30.55,NNW,330,4.0,11.0,51,0.00,,,0.00,weatherlink.com 1.10,2013-11-29 15:45:00,
2013-11-29 11:00:00,48.9,30.0,30.55,NE,56,8.0,12.0,49,0.00,,,0.00,weatherlink.com 1.10,2013-11-29 16:00:00,
2013-11-29 11:15:00,50.8,33.0,30.54,NNW,336,3.0,5.0,50,0.00,,,0.00,weatherlink.com 1.10,2013-11-29 16:15:00,
2013-11-29 11:30:00,50.5,32.0,30.53,NW,319,0.0,11.0,49,0.00,,,0.00,weatherlink.com 1.10,2013-11-29 16:30:00,
2013-11-29 11:45:00,50.1,32.0,30.53,NE,56,6.0,12.0,51,0.00,,,0.00,weatherlink.com 1.10,2013-11-29 16:45:00,
2013-11-29 12:00:00,50.2,33.0,30.53,East,80,2.0,10.0,53,0.00,,,0.00,weatherlink.com 1.10,2013-11-29 17:00:00,
2013-11-29 12:15:00,50.7,33.0,30.52,East,93,2.0,8.0,52,0.00,,,0.00,weatherlink.com 1.10,2013-11-29 17:15:00,
2013-11-29 12:30:00,51.6,34.0,30.52,ENE,75,2.0,7.0,51,0.00,,,0.00,weatherlink.com 1.10,2013-11-29 17:30:00,
2013-11-29 12:45:00,52.0,34.0,30.51,SE,130,0.0,7.0,51,0.00,,,0.00,weatherlink.com 1.10,2013-11-29 17:45:00,
2013-11-29 13:00:00,53.3,34.0,30.51,East,85,1.0,8.0,48,0.00,,,0.00,weatherlink.com 1.10,2013-11-29 18:00:00,
2013-11-29 13:15:00,54.1,32.0,30.50,North,354,0.0,6.0,44,0.00,,,0.00,weatherlink.com 1.10,2013-11-29 18:15:00,
2013-11-29 13:31:00,55.2,33.0,30.50,ENE,58,5.0,6.0,43,0.00,,,0.00,weatherlink.com 1.10,2013-11-29 18:31:00,
2013-11-29 13:46:00,55.3,32.0,30.49,NE,51,3.0,8.0,42,0.00,,,0.00,weatherlink.com 1.10,2013-11-29 18:46:00,
2013-11-29 14:01:00,55.7,32.0,30.49,ENE,63,9.0,10.0,41,0.00,,,0.00,weatherlink.com 1.10,2013-11-29 19:01:00,
2013-11-29 14:16:00,55.6,32.0,30.48,NNE,13,3.0,9.0,41,0.00,,,0.00,weatherlink.com 1.10,2013-11-29 19:16:00,
2013-11-29 14:31:00,56.0,32.0,30.48,NNW,336,4.0,9.0,40,0.00,,,0.00,weatherlink.com 1.10,2013-11-29 19:31:00,
2013-11-29 14:46:00,56.0,32.0,30.48,ENE,69,0.0,6.0,41,0.00,,,0.00,weatherlink.com 1.10,2013-11-29 19:46:00,
2013-11-29 15:01:00,55.9,31.0,30.48,East,80,2.0,9.0,39,0.00,,,0.00,weatherlink.com 1.10,2013-11-29 20:01:00,
2013-11-29 15:16:00,55.7,33.0,30.48,NE,34,4.0,5.0,42,0.00,,,0.00,weatherlink.com 1.10,2013-11-29 20:16:00,
2013-11-29 15:31:00,55.3,32.0,30.48,NE,38,3.0,8.0,42,0.00,,,0.00,weatherlink.com 1.10,2013-11-29 20:31:00,
2013-11-29 15:46:00,54.7,32.0,30.49,ENE,58,2.0,7.0,43,0.00,,,0.00,weatherlink.com 1.10,2013-11-29 20:46:00,
2013-11-29 16:01:00,54.4,33.0,30.48,NE,37,1.0,8.0,44,0.00,,,0.00,weatherlink.com 1.10,2013-11-29 21:01:00,
2013-11-29 16:16:00,54.1,34.0,30.48,North,10,2.0,5.0,46,0.00,,,0.00,weatherlink.com 1.10,2013-11-29 21:16:00,
2013-11-29 16:31:00,53.3,34.0,30.48,NNE,22,2.0,6.0,48,0.00,,,0.00,weatherlink.com 1.10,2013-11-29 21:31:00,
2013-11-29 16:46:00,52.2,34.0,30.49,NNE,28,1.0,3.0,50,0.00,,,0.00,weatherlink.com 1.10,2013-11-29 21:46:00,
2013-11-29 17:01:00,51.0,34.0,30.49,NE,48,2.0,3.0,52,0.00,,,0.00,weatherlink.com 1.10,2013-11-29 22:01:00,
2013-11-29 17:16:00,49.7,34.0,30.50,NE,42,2.0,3.0,55,0.00,,,0.00,weatherlink.com 1.10,2013-11-29 22:16:00,
2013-11-29 17:31:00,48.7,34.0,30.50,NNE,12,0.0,2.0,57,0.00,,,0.00,weatherlink.com 1.10,2013-11-29 22:31:00,
2013-11-29 17:46:00,47.5,34.0,30.50,NNE,20,0.0,1.0,60,0.00,,,0.00,weatherlink.com 1.10,2013-11-29 22:46:00,
2013-11-29 18:01:00,46.0,35.0,30.50,North,7,0.0,0.0,65,0.00,,,0.00,weatherlink.com 1.10,2013-11-29 23:01:00,
2013-11-29 18:16:00,45.0,35.0,30.51,North,358,0.0,1.0,67,0.00,,,0.00,weatherlink.com 1.10,2013-11-29 23:16:00,
2013-11-29 18:31:00,44.2,34.0,30.51,North,357,0.0,1.0,68,0.00,,,0.00,weatherlink.com 1.10,2013-11-29 23:31:00,
2013-11-29 18:46:00,43.8,35.0,30.51,North,357,0.0,1.0,70,0.00,,,0.00,weatherlink.com 1.10,2013-11-29 23:46:00,
2013-11-29 19:01:00,43.3,34.0,30.52,North,357,0.0,0.0,70,0.00,,,0.00,weatherlink.com 1.10,2013-11-30 00:01:00,
2013-11-29 19:16:00,42.7,35.0,30.52,North,357,0.0,0.0,73,0.00,,,0.00,weatherlink.com 1.10,2013-11-30 00:16:00,
2013-11-29 19:31:00,43.5,35.0,30.53,NE,47,2.0,4.0,71,0.00,,,0.00,weatherlink.com 1.10,2013-11-30 00:31:00,
2013-11-29 19:46:00,43.3,34.0,30.53,ENE,59,1.0,3.0,71,0.00,,,0.00,weatherlink.com 1.10,2013-11-30 00:46:00,
2013-11-29 20:01:00,43.5,34.0,30.53,ENE,61,2.0,5.0,70,0.00,,,0.00,weatherlink.com 1.10,2013-11-30 01:01:00,
2013-11-29 20:16:00,43.2,34.0,30.53,ENE,75,0.0,4.0,71,0.00,,,0.00,weatherlink.com 1.10,2013-11-30 01:16:00,
2013-11-29 20:31:00,42.9,34.0,30.53,ENE,63,1.0,4.0,70,0.00,,,0.00,weatherlink.com 1.10,2013-11-30 01:31:00,
2013-11-29 20:46:00,43.0,33.0,30.54,NE,56,5.0,7.0,69,0.00,,,0.00,weatherlink.com 1.10,2013-11-30 01:46:00,
2013-11-29 21:01:00,42.9,33.0,30.55,ENE,68,5.0,5.0,68,0.00,,,0.00,weatherlink.com 1.10,2013-11-30 02:01:00,
2013-11-29 21:16:00,42.8,32.0,30.55,NE,56,2.0,7.0,67,0.00,,,0.00,weatherlink.com 1.10,2013-11-30 02:16:00,
2013-11-29 21:31:00,42.2,32.0,30.55,NNE,31,4.0,8.0,68,0.00,,,0.00,weatherlink.com 1.10,2013-11-30 02:31:00,
2013-11-29 21:46:00,41.7,32.0,30.55,NNE,27,2.0,6.0,68,0.00,,,0.00,weatherlink.com 1.10,2013-11-30 02:46:00,
2013-11-29 22:01:00,41.1,32.0,30.56,NE,37,2.0,4.0,70,0.00,,,0.00,weatherlink.com 1.10,2013-11-30 03:01:00,
2013-11-29 22:16:00,40.6,32.0,30.56,NNE,33,2.0,6.0,71,0.00,,,0.00,weatherlink.com 1.10,2013-11-30 03:16:00,
2013-11-29 22:31:00,40.7,32.0,30.55,NE,56,2.0,6.0,70,0.00,,,0.00,weatherlink.com 1.10,2013-11-30 03:31:00,
2013-11-29 22:46:00,40.7,32.0,30.55,NE,39,2.0,8.0,70,0.00,,,0.00,weatherlink.com 1.10,2013-11-30 03:46:00,
2013-11-29 23:01:00,40.5,31.0,30.55,NE,38,3.0,6.0,70,0.00,,,0.00,weatherlink.com 1.10,2013-11-30 04:01:00,
2013-11-29 23:16:00,40.2,31.0,30.55,ESE,108,2.0,8.0,71,0.00,,,0.00,weatherlink.com 1.10,2013-11-30 04:16:00,
2013-11-29 23:31:00,40.2,32.0,30.55,ENE,70,6.0,7.0,72,0.00,,,0.00,weatherlink.com 1.10,2013-11-30 04:31:00,
2013-11-29 23:46:00,40.2,32.0,30.55,NNE,33,2.0,12.0,72,0.00,,,0.00,weatherlink.com 1.10,2013-11-30 04:46:00,